Time;durP1;ratioP1;P1;durP2;ratioP2;P2;SDS_P1;SDS_P2;PMS_P1;PMS_P2;Temp;Humidity;BMP_temperature;BMP_pressure;BME280_temperature;BME280_humidity;BME280_pressure;Samples;Min_cycle;Max_cycle;Signal;HPM_P1;HPM_P2
2022/12/03 00:02:09;;;;;;;0.70;0.70;;;1.50;99.90;;;;;;5114251;28;20191;-85
2022/12/03 00:04:35;;;;;;;0.80;0.80;;;1.50;99.90;;;;;;5113946;28;20192;-84
2022/12/03 00:07:00;;;;;;;0.68;0.68;;;1.50;99.90;;;;;;5095812;28;20195;-85
2022/12/03 00:09:26;;;;;;;0.57;0.57;;;1.50;99.90;;;;;;5113856;28;20188;-84
2022/12/03 00:11:52;;;;;;;0.60;0.60;;;1.40;99.90;;;;;;5113533;28;20195;-85
2022/12/03 00:14:17;;;;;;;0.60;0.60;;;1.50;99.90;;;;;;5113735;28;20248;-85
2022/12/03 00:16:43;;;;;;;0.60;0.60;;;1.50;99.90;;;;;;5113668;28;20592;-85
2022/12/03 00:19:09;;;;;;;0.60;0.60;;;1.50;99.90;;;;;;5113773;28;20191;-84
2022/12/03 00:21:35;;;;;;;0.60;0.60;;;1.50;99.90;;;;;;5113507;28;20192;-85
2022/12/03 00:24:00;;;;;;;0.60;0.60;;;1.50;99.90;;;;;;5107273;28;20707;-85
2022/12/03 00:26:26;;;;;;;0.60;0.60;;;1.50;99.90;;;;;;5095031;28;20188;-84
2022/12/03 00:28:53;;;;;;;0.70;0.70;;;1.50;99.90;;;;;;5095559;28;20192;-84
2022/12/03 00:31:22;;;;;;;0.45;0.45;;;1.60;99.90;;;;;;5113494;28;20195;-84
2022/12/03 00:33:48;;;;;;;0.68;0.68;;;1.60;99.90;;;;;;5095742;28;20199;-85
2022/12/03 00:36:14;;;;;;;0.43;0.43;;;1.60;99.90;;;;;;5095225;28;20682;-85
2022/12/03 00:38:39;;;;;;;0.70;0.70;;;1.60;99.90;;;;;;5113406;28;20210;-85
2022/12/03 00:41:05;;;;;;;0.70;0.70;;;1.50;99.90;;;;;;5095108;28;20390;-85
2022/12/03 00:43:31;;;;;;;0.50;0.50;;;1.60;99.90;;;;;;5113439;28;20214;-85
2022/12/03 00:45:56;;;;;;;0.60;0.60;;;1.60;99.90;;;;;;5113155;28;20696;-85
2022/12/03 00:48:22;;;;;;;0.68;0.68;;;1.50;99.90;;;;;;5113411;28;20564;-84
2022/12/03 00:50:47;;;;;;;0.55;0.55;;;1.60;99.90;;;;;;5109631;28;20207;-85
2022/12/03 00:53:13;;;;;;;0.70;0.70;;;1.60;99.90;;;;;;5113459;28;20245;-85
2022/12/03 00:55:39;;;;;;;0.50;0.50;;;1.60;99.90;;;;;;5095006;28;20310;-85
2022/12/03 00:58:07;;;;;;;0.70;0.70;;;1.60;99.90;;;;;;5095354;28;20227;-84
2022/12/03 01:00:33;;;;;;;0.65;0.65;;;1.60;99.90;;;;;;5094875;28;20198;-84
2022/12/03 01:02:58;;;;;;;0.50;0.50;;;1.60;99.90;;;;;;5113312;28;20639;-84
2022/12/03 01:05:24;;;;;;;0.50;0.50;;;1.50;99.90;;;;;;5113177;28;20558;-85
2022/12/03 01:07:50;;;;;;;0.70;0.70;;;1.50;99.90;;;;;;5113669;28;20554;-85
2022/12/03 01:10:15;;;;;;;0.63;0.63;;;1.50;99.90;;;;;;5113144;28;20249;-85
2022/12/03 01:12:41;;;;;;;0.70;0.70;;;1.50;99.90;;;;;;5113007;28;20252;-84
2022/12/03 01:15:08;;;;;;;0.50;0.50;;;1.50;99.90;;;;;;5094950;28;20259;-85
2022/12/03 01:17:34;;;;;;;0.60;0.60;;;1.50;99.90;;;;;;5113167;28;20260;-85
2022/12/03 01:20:00;;;;;;;0.70;0.70;;;1.40;99.90;;;;;;5112818;28;20188;-85
2022/12/03 01:22:26;;;;;;;0.60;0.60;;;1.40;99.90;;;;;;5113116;28;20187;-85
2022/12/03 01:24:52;;;;;;;0.50;0.50;;;1.40;99.90;;;;;;5106590;28;20556;-85
2022/12/03 01:27:18;;;;;;;0.60;0.60;;;1.40;99.90;;;;;;5113089;28;20188;-84
2022/12/03 01:29:43;;;;;;;1.65;1.38;;;1.40;99.90;;;;;;5090507;28;20214;-85
2022/12/03 01:32:15;;;;;;;0.50;0.50;;;1.40;99.90;;;;;;5090286;28;20203;-85
2022/12/03 01:34:50;;;;;;;0.70;0.70;;;1.40;99.90;;;;;;5094530;28;20211;-84
2022/12/03 01:37:17;;;;;;;0.70;0.70;;;1.40;99.90;;;;;;5114485;28;20295;-85
2022/12/03 01:39:43;;;;;;;0.60;0.60;;;1.40;99.90;;;;;;5098080;28;20238;-85
2022/12/03 01:42:22;;;;;;;0.43;0.43;;;1.40;99.90;;;;;;5098609;28;20195;-85
2022/12/03 01:44:51;;;;;;;0.60;0.60;;;1.40;99.90;;;;;;5116382;28;20654;-85
2022/12/03 01:47:21;;;;;;;0.70;0.70;;;1.40;99.90;;;;;;5098340;28;20229;-85
2022/12/03 01:50:00;;;;;;;0.60;0.60;;;1.40;99.90;;;;;;5116512;28;20685;-85
2022/12/03 01:52:30;;;;;;;0.50;0.50;;;1.40;99.90;;;;;;5116042;28;20199;-85
2022/12/03 01:54:58;;;;;;;0.70;0.70;;;1.30;99.90;;;;;;5116193;28;20207;-85
2022/12/03 01:57:30;;;;;;;0.60;0.60;;;1.40;99.90;;;;;;5116255;28;20564;-85
2022/12/03 01:59:57;;;;;;;0.50;0.50;;;1.40;99.90;;;;;;5108407;28;20188;-85
2022/12/03 02:02:25;;;;;;;0.50;0.50;;;1.30;99.90;;;;;;5115770;28;20236;-84
2022/12/03 02:04:52;;;;;;;0.85;0.85;;;1.30;99.90;;;;;;5116038;28;20192;-85
2022/12/03 02:07:28;;;;;;;0.50;0.50;;;1.40;99.90;;;;;;5115646;28;20199;-84
2022/12/03 02:09:55;;;;;;;0.50;0.50;;;1.40;99.90;;;;;;5097411;28;20191;-85
2022/12/03 02:12:36;;;;;;;0.60;0.60;;;1.40;99.90;;;;;;5097443;28;20196;-84
2022/12/03 02:15:07;;;;;;;0.50;0.50;;;1.40;99.90;;;;;;5115815;28;20331;-85
2022/12/03 02:17:33;;;;;;;0.70;0.70;;;1.40;99.90;;;;;;5097258;28;20198;-85
2022/12/03 02:20:00;;;;;;;0.60;0.60;;;1.40;99.90;;;;;;5097662;28;20203;-85
2022/12/03 02:23:07;;;;;;;0.60;0.60;;;1.40;99.90;;;;;;5097593;28;20200;-84
2022/12/03 02:25:35;;;;;;;0.60;0.60;;;1.40;99.90;;;;;;5062554;28;20200;-84
2022/12/03 02:28:03;;;;;;;0.60;0.60;;;1.40;99.90;;;;;;5107749;28;20545;-85
2022/12/03 02:30:30;;;;;;;0.60;0.60;;;1.30;99.90;;;;;;5097456;28;20625;-84
2022/12/03 02:32:56;;;;;;;0.75;0.75;;;1.30;99.90;;;;;;5116048;28;20184;-84
2022/12/03 02:35:32;;;;;;;0.70;0.70;;;1.30;99.90;;;;;;5115403;28;20797;-84
2022/12/03 02:38:22;;;;;;;0.50;0.50;;;1.30;99.90;;;;;;5097377;28;20681;-85
2022/12/03 02:40:51;;;;;;;0.70;0.70;;;1.30;99.90;;;;;;5096999;28;20706;-85
2022/12/03 02:43:19;;;;;;;1.02;0.93;;;1.30;99.90;;;;;;5115189;28;20194;-84
2022/12/03 02:45:49;;;;;;;15.13;1.85;;;1.30;99.90;;;;;;5113610;28;20763;-84
2022/12/03 02:48:18;;;;;;;0.60;0.60;;;1.30;99.90;;;;;;5096787;28;20686;-85
2022/12/03 02:50:52;;;;;;;0.60;0.60;;;1.30;99.90;;;;;;5115120;28;20723;-84
2022/12/03 02:53:27;;;;;;;0.50;0.50;;;1.30;99.90;;;;;;5096928;28;20198;-85
2022/12/03 02:55:55;;;;;;;0.70;0.70;;;1.30;99.90;;;;;;5096671;28;20252;-84
2022/12/03 02:58:23;;;;;;;0.60;0.60;;;1.30;99.90;;;;;;5096443;28;20278;-84
2022/12/03 03:00:52;;;;;;;0.65;0.65;;;1.30;99.90;;;;;;5114349;28;20663;-84
2022/12/03 03:03:18;;;;;;;0.70;0.70;;;1.30;99.90;;;;;;5086222;28;20203;-84
2022/12/03 03:05:45;;;;;;;0.57;0.57;;;1.30;99.90;;;;;;5076232;28;20250;-84
2022/12/03 03:08:12;;;;;;;0.60;0.60;;;1.30;99.90;;;;;;5094363;28;20520;-85
2022/12/03 03:10:39;;;;;;;0.50;0.50;;;1.30;99.90;;;;;;5076397;28;20230;-84
2022/12/03 03:13:11;;;;;;;0.60;0.60;;;1.30;99.90;;;;;;5076359;28;20308;-85
2022/12/03 03:15:38;;;;;;;0.60;0.60;;;1.30;99.90;;;;;;5094302;28;20577;-84
2022/12/03 03:18:05;;;;;;;0.70;0.70;;;1.20;99.90;;;;;;5094113;28;20557;-85
2022/12/03 03:20:31;;;;;;;0.50;0.50;;;1.20;99.90;;;;;;5075878;28;20199;-84
2022/12/03 03:23:11;;;;;;;0.70;0.70;;;1.30;99.90;;;;;;5095473;28;20188;-84
2022/12/03 03:25:39;;;;;;;0.68;0.68;;;1.30;99.90;;;;;;5096007;28;20726;-84
2022/12/03 03:28:06;;;;;;;0.70;0.70;;;1.30;99.90;;;;;;5114614;28;20188;-84
2022/12/03 03:30:33;;;;;;;0.50;0.50;;;1.30;99.90;;;;;;5095880;28;20253;-84
2022/12/03 03:32:58;;;;;;;0.60;0.60;;;1.30;99.90;;;;;;5114683;28;20207;-85
2022/12/03 03:35:24;;;;;;;0.60;0.60;;;1.30;99.90;;;;;;5113934;28;20297;-84
2022/12/03 03:37:52;;;;;;;0.70;0.70;;;1.30;99.90;;;;;;5095976;28;20199;-84
2022/12/03 03:40:19;;;;;;;0.60;0.60;;;1.30;99.90;;;;;;5095794;28;20219;-83
2022/12/03 03:42:45;;;;;;;0.60;0.60;;;1.20;99.90;;;;;;5114059;28;20626;-84
2022/12/03 03:45:11;;;;;;;0.63;0.63;;;1.20;99.90;;;;;;5114253;28;20192;-84
2022/12/03 03:47:39;;;;;;;0.60;0.60;;;1.20;99.90;;;;;;5093591;28;20725;-83
2022/12/03 03:50:06;;;;;;;0.50;0.50;;;1.20;99.90;;;;;;5114050;28;20221;-85
2022/12/03 03:52:33;;;;;;;0.60;0.60;;;1.20;99.90;;;;;;5113651;28;20709;-83
2022/12/03 03:54:58;;;;;;;0.80;0.80;;;1.20;99.90;;;;;;5095615;28;20584;-84
2022/12/03 03:57:24;;;;;;;0.70;0.70;;;1.20;99.90;;;;;;5113435;28;20188;-83
2022/12/03 03:59:50;;;;;;;0.60;0.60;;;1.20;99.90;;;;;;5094964;28;20196;-84
2022/12/03 04:02:19;;;;;;;0.63;0.63;;;1.20;99.90;;;;;;5109776;28;20237;-83
2022/12/03 04:04:44;;;;;;;0.60;0.60;;;1.20;99.90;;;;;;5112905;28;20277;-85
2022/12/03 04:07:10;;;;;;;0.60;0.60;;;1.20;99.90;;;;;;5095471;28;20309;-85
2022/12/03 04:09:36;;;;;;;0.60;0.60;;;1.10;99.90;;;;;;5113737;28;20199;-84
2022/12/03 04:14:45;;;;;;;0.50;0.50;;;1.00;99.90;;;;;;5113871;28;20759;-84
2022/12/03 04:17:11;;;;;;;0.80;0.80;;;1.00;99.90;;;;;;5113962;28;20183;-83
2022/12/03 04:19:36;;;;;;;0.60;0.60;;;1.00;99.90;;;;;;5113062;28;20195;-82
2022/12/03 04:28:47;;;;;;;0.60;0.60;;;1.00;99.90;;;;;;5076877;28;20223;-85
2022/12/03 04:30:23;;;;;;;0.60;0.60;;;1.00;99.90;;;;;;5093000;28;20215;-83
2022/12/03 04:35:42;;;;;;;0.60;0.60;;;1.00;99.90;;;;;;5093031;28;20242;-84
2022/12/03 04:38:08;;;;;;;0.60;0.60;;;1.00;99.90;;;;;;5075021;28;20196;-85
2022/12/03 04:43:18;;;;;;;0.50;0.50;;;0.90;99.90;;;;;;5088146;28;20269;-82
2022/12/03 04:45:44;;;;;;;1.27;1.17;;;1.00;99.90;;;;;;5092974;28;20195;-85
2022/12/03 04:48:09;;;;;;;0.70;0.70;;;0.90;99.90;;;;;;5093008;28;20199;-83
2022/12/03 04:50:35;;;;;;;0.70;0.70;;;1.00;99.90;;;;;;5074670;28;20250;-83
2022/12/03 04:53:01;;;;;;;1.30;1.20;;;0.90;99.90;;;;;;5075376;28;20250;-85
2022/12/03 04:55:26;;;;;;;0.80;0.80;;;0.90;99.90;;;;;;5092445;28;20200;-85
2022/12/03 04:57:52;;;;;;;0.60;0.60;;;1.00;99.90;;;;;;5093179;28;20240;-83
2022/12/03 05:00:18;;;;;;;0.68;0.68;;;1.00;99.90;;;;;;5074502;28;20196;-85
2022/12/03 05:02:44;;;;;;;0.50;0.50;;;1.00;99.90;;;;;;5075148;28;20224;-85
2022/12/03 05:05:09;;;;;;;0.47;0.47;;;1.00;99.90;;;;;;5075416;28;20200;-83
2022/12/03 05:07:35;;;;;;;0.70;0.70;;;0.90;99.90;;;;;;5092809;28;20260;-85
2022/12/03 05:10:02;;;;;;;0.70;0.70;;;0.90;99.90;;;;;;5091691;28;20188;-85
2022/12/03 05:12:28;;;;;;;0.50;0.50;;;0.90;99.90;;;;;;5077940;28;20249;-84
2022/12/03 05:14:53;;;;;;;0.60;0.60;;;0.90;99.90;;;;;;5097054;28;20199;-84
2022/12/03 05:17:19;;;;;;;0.50;0.50;;;0.90;99.90;;;;;;5078767;28;20243;-83
2022/12/03 05:22:29;;;;;;;0.50;0.50;;;0.80;99.90;;;;;;5096426;28;20195;-82
2022/12/03 05:24:55;;;;;;;0.60;0.60;;;0.80;99.90;;;;;;5059575;28;20201;-82
2022/12/03 05:27:20;;;;;;;0.60;0.60;;;0.80;99.90;;;;;;5076059;28;20197;-82
2022/12/03 05:29:47;;;;;;;0.60;0.60;;;0.80;99.90;;;;;;5058153;28;20197;-82
2022/12/03 05:32:12;;;;;;;0.60;0.60;;;0.70;99.90;;;;;;5058084;28;20715;-85
2022/12/03 05:34:38;;;;;;;0.65;0.65;;;0.70;99.90;;;;;;5058038;28;20312;-86
2022/12/03 05:37:04;;;;;;;0.60;0.60;;;0.70;99.90;;;;;;5057802;28;20197;-83
2022/12/03 05:39:29;;;;;;;0.50;0.50;;;0.70;99.90;;;;;;5080463;28;20224;-82
2022/12/03 05:44:39;;;;;;;0.60;0.60;;;0.70;99.90;;;;;;5095913;28;20566;-82
2022/12/03 05:47:05;;;;;;;0.60;0.60;;;0.70;99.90;;;;;;5104028;28;20196;-80
2022/12/03 05:49:31;;;;;;;0.60;0.60;;;0.60;99.90;;;;;;5116218;28;20247;-81
2022/12/03 05:51:59;;;;;;;0.60;0.60;;;0.60;99.90;;;;;;5115912;28;20264;-81
2022/12/03 05:54:24;;;;;;;0.50;0.50;;;0.60;99.90;;;;;;5097865;28;20536;-81
2022/12/03 05:56:50;;;;;;;0.60;0.60;;;0.60;99.90;;;;;;5115057;28;20199;-80
2022/12/03 05:59:16;;;;;;;0.60;0.60;;;0.60;99.90;;;;;;5080751;28;20673;-80
2022/12/03 06:01:41;;;;;;;0.50;0.50;;;0.60;99.90;;;;;;5115669;28;20188;-78
2022/12/03 06:04:07;;;;;;;0.70;0.70;;;0.70;99.90;;;;;;5097411;28;20204;-81
2022/12/03 06:06:33;;;;;;;0.60;0.60;;;0.70;99.90;;;;;;5115553;28;20228;-81
2022/12/03 06:08:58;;;;;;;0.60;0.60;;;0.70;99.90;;;;;;5115902;28;20199;-80
2022/12/03 06:11:24;;;;;;;0.60;0.60;;;0.80;99.90;;;;;;5097323;28;20218;-81
2022/12/03 06:13:50;;;;;;;1.55;1.15;;;0.80;99.90;;;;;;5115556;28;20221;-81
2022/12/03 06:16:15;;;;;;;0.63;0.63;;;0.80;99.90;;;;;;5097250;28;20249;-79
2022/12/03 06:18:41;;;;;;;0.70;0.70;;;0.80;99.90;;;;;;5097243;28;20195;-79
2022/12/03 06:21:07;;;;;;;0.65;0.65;;;0.70;99.90;;;;;;5115733;28;20187;-79
2022/12/03 06:23:32;;;;;;;0.68;0.68;;;0.70;99.90;;;;;;5107430;28;20198;-79
2022/12/03 06:25:58;;;;;;;0.75;0.75;;;0.60;99.90;;;;;;5095245;28;20219;-79
2022/12/03 06:28:23;;;;;;;0.75;0.75;;;0.60;99.90;;;;;;5094946;28;20223;-80
2022/12/03 06:30:49;;;;;;;0.63;0.63;;;0.50;99.90;;;;;;5081209;28;20701;-79
2022/12/03 06:33:15;;;;;;;1.23;1.15;;;0.50;99.90;;;;;;5097254;28;20222;-78
2022/12/03 06:35:41;;;;;;;0.60;0.60;;;0.50;99.90;;;;;;5115059;28;20207;-80
2022/12/03 06:38:06;;;;;;;0.68;0.68;;;0.50;99.90;;;;;;5096854;28;20199;-80
2022/12/03 06:40:32;;;;;;;0.50;0.50;;;0.50;99.90;;;;;;5114445;28;20227;-80
2022/12/03 06:42:57;;;;;;;0.60;0.60;;;0.50;99.90;;;;;;5115313;28;20584;-79
2022/12/03 06:45:23;;;;;;;1.25;1.15;;;0.50;99.90;;;;;;5115074;28;20191;-79
2022/12/03 06:47:49;;;;;;;0.57;0.57;;;0.50;99.90;;;;;;5114888;28;20202;-79
2022/12/03 06:50:15;;;;;;;0.70;0.70;;;0.50;99.90;;;;;;5096734;28;20290;-81
2022/12/03 06:52:41;;;;;;;0.73;0.73;;;0.50;99.90;;;;;;5114782;28;20283;-79
2022/12/03 06:55:07;;;;;;;0.70;0.70;;;0.50;99.90;;;;;;5114917;28;20232;-79
2022/12/03 06:57:32;;;;;;;0.60;0.60;;;0.50;99.90;;;;;;5096318;28;20187;-79
2022/12/03 06:59:58;;;;;;;0.60;0.60;;;0.50;99.90;;;;;;5114962;28;20198;-79
2022/12/03 07:02:24;;;;;;;0.50;0.50;;;0.50;99.90;;;;;;5096430;28;20291;-79
2022/12/03 07:04:49;;;;;;;0.70;0.70;;;0.40;99.90;;;;;;5114742;28;20215;-79
2022/12/03 07:07:15;;;;;;;0.60;0.60;;;0.50;99.90;;;;;;5096425;28;20592;-79
2022/12/03 07:09:41;;;;;;;0.60;0.60;;;0.50;99.90;;;;;;5095982;28;20210;-80
2022/12/03 07:12:06;;;;;;;0.60;0.60;;;0.40;99.90;;;;;;5096767;28;20290;-80
2022/12/03 07:14:32;;;;;;;0.50;0.50;;;0.50;99.90;;;;;;5096127;28;20200;-80
2022/12/03 07:16:58;;;;;;;1.02;1.02;;;0.50;99.90;;;;;;5096290;28;20604;-79
2022/12/03 07:19:23;;;;;;;0.55;0.55;;;0.50;99.90;;;;;;5114212;28;20223;-80
2022/12/03 07:21:49;;;;;;;0.60;0.60;;;0.40;99.90;;;;;;5114682;28;20194;-79
2022/12/03 07:24:15;;;;;;;0.63;0.63;;;0.40;99.90;;;;;;5082880;28;20605;-79
2022/12/03 07:26:41;;;;;;;0.80;0.80;;;0.40;99.90;;;;;;5093710;28;20188;-79
2022/12/03 07:29:06;;;;;;;0.85;0.85;;;0.40;99.90;;;;;;5104688;28;20237;-80
2022/12/03 07:31:32;;;;;;;0.70;0.70;;;0.40;99.90;;;;;;5114008;28;20183;-79
2022/12/03 07:34:01;;;;;;;0.60;0.60;;;0.40;99.90;;;;;;5113775;28;20192;-79
2022/12/03 07:36:27;;;;;;;2.67;1.45;;;0.40;99.90;;;;;;5095239;28;20298;-78
2022/12/03 07:38:52;;;;;;;0.68;0.68;;;0.50;99.90;;;;;;5113767;28;20772;-79
2022/12/03 07:41:18;;;;;;;0.88;0.88;;;0.50;99.90;;;;;;5095593;28;20292;-79
2022/12/03 07:43:44;;;;;;;0.60;0.60;;;0.50;99.90;;;;;;5113673;28;20237;-80
2022/12/03 07:46:09;;;;;;;0.50;0.50;;;0.50;99.90;;;;;;5095853;28;20278;-79
2022/12/03 07:48:35;;;;;;;0.50;0.50;;;0.60;99.90;;;;;;5095431;28;20207;-79
2022/12/03 07:51:01;;;;;;;0.60;0.60;;;0.60;99.90;;;;;;5095492;28;20203;-80
2022/12/03 07:53:26;;;;;;;0.50;0.50;;;0.70;99.90;;;;;;5113710;28;20210;-79
2022/12/03 07:55:52;;;;;;;2.25;1.80;;;0.70;99.90;;;;;;5093998;28;20709;-79
2022/12/03 07:58:18;;;;;;;0.63;0.63;;;0.60;99.90;;;;;;5095417;28;20202;-79
2022/12/03 08:00:43;;;;;;;0.70;0.70;;;0.60;99.90;;;;;;5113597;28;20194;-79
2022/12/03 08:03:09;;;;;;;0.52;0.52;;;0.60;99.90;;;;;;5113870;28;20188;-79
2022/12/03 08:05:34;;;;;;;1.23;1.15;;;0.60;99.90;;;;;;5094168;28;20199;-78
2022/12/03 08:08:00;;;;;;;0.80;0.80;;;0.70;99.90;;;;;;5095516;28;20193;-79
2022/12/03 08:10:26;;;;;;;2.47;1.50;;;0.70;99.90;;;;;;5113305;28;20195;-79
2022/12/03 08:12:52;;;;;;;0.60;0.60;;;0.60;99.90;;;;;;5095128;28;20221;-80
2022/12/03 08:15:23;;;;;;;0.60;0.60;;;0.70;99.90;;;;;;5113628;28;20711;-78
2022/12/03 08:17:59;;;;;;;2.05;1.48;;;0.70;99.90;;;;;;5113803;28;20183;-77
2022/12/03 08:20:33;;;;;;;0.60;0.60;;;0.70;99.90;;;;;;5113853;28;20187;-78
2022/12/03 08:23:01;;;;;;;0.60;0.60;;;0.70;99.90;;;;;;5092645;28;20194;-78
2022/12/03 08:25:31;;;;;;;0.70;0.70;;;0.70;99.90;;;;;;5074603;28;20200;-78
2022/12/03 08:28:23;;;;;;;0.70;0.70;;;0.70;99.90;;;;;;5092060;28;20196;-78
2022/12/03 08:31:11;;;;;;;0.70;0.70;;;0.70;99.90;;;;;;5091565;28;20196;-78
2022/12/03 08:33:40;;;;;;;0.80;0.80;;;0.70;99.90;;;;;;5074759;28;20698;-79
2022/12/03 08:36:29;;;;;;;0.95;0.88;;;0.70;99.90;;;;;;5102505;28;20243;-77
2022/12/03 08:39:22;;;;;;;0.68;0.68;;;0.70;99.90;;;;;;5111855;28;20597;-78
2022/12/03 08:44:39;;;;;;;0.70;0.70;;;0.80;99.90;;;;;;5113565;28;20268;-84
2022/12/03 08:47:18;;;;;;;0.60;0.60;;;0.80;99.90;;;;;;5116124;28;20194;-85
2022/12/03 08:50:00;;;;;;;0.95;0.95;;;0.70;99.90;;;;;;5117116;28;20598;-85
2022/12/03 08:52:33;;;;;;;0.60;0.60;;;0.70;99.90;;;;;;5098709;28;20277;-80
2022/12/03 08:55:09;;;;;;;0.55;0.55;;;0.70;99.90;;;;;;5098511;28;20211;-79
2022/12/03 08:57:46;;;;;;;0.50;0.50;;;0.70;99.90;;;;;;5098556;28;20198;-79
2022/12/03 09:00:22;;;;;;;0.60;0.60;;;0.70;99.90;;;;;;5116920;28;20270;-79
2022/12/03 09:03:18;;;;;;;0.52;0.52;;;0.70;99.90;;;;;;5078435;28;20282;-82
2022/12/03 09:05:44;;;;;;;0.57;0.57;;;0.70;99.90;;;;;;5096329;28;20202;-79
2022/12/03 09:08:37;;;;;;;0.40;0.40;;;0.70;99.90;;;;;;5096410;28;20191;-81
2022/12/03 09:14:38;;;;;;;0.93;0.93;;;0.70;99.90;;;;;;5095977;28;20704;-80
2022/12/03 09:17:06;;;;;;;1.17;1.15;;;0.80;99.90;;;;;;5096601;28;20188;-79
2022/12/03 09:19:32;;;;;;;0.52;0.52;;;0.80;99.90;;;;;;5096117;28;20597;-79
2022/12/03 09:22:03;;;;;;;1.30;0.88;;;0.80;99.90;;;;;;5078230;28;20223;-79
2022/12/03 09:24:31;;;;;;;2.13;1.50;;;0.80;99.90;;;;;;5089211;28;20227;-78
2022/12/03 09:26:57;;;;;;;1.92;1.55;;;0.80;99.90;;;;;;5095032;28;20216;-79
2022/12/03 09:29:26;;;;;;;1.73;1.60;;;0.90;99.90;;;;;;5094688;28;20203;-79
2022/12/03 09:31:51;;;;;;;0.95;0.95;;;0.90;99.90;;;;;;5097847;28;20203;-78
2022/12/03 09:34:17;;;;;;;1.95;1.52;;;0.90;99.90;;;;;;5115117;28;20203;-80
2022/12/03 09:36:42;;;;;;;1.35;1.25;;;0.90;99.90;;;;;;5097874;28;20218;-79
2022/12/03 09:39:08;;;;;;;0.50;0.50;;;0.90;99.90;;;;;;5098048;28;20260;-79
2022/12/03 09:41:34;;;;;;;0.60;0.60;;;0.90;99.90;;;;;;5116183;28;20195;-79
2022/12/03 09:44:01;;;;;;;1.13;1.05;;;0.90;99.90;;;;;;5097820;28;20210;-79
2022/12/03 09:46:27;;;;;;;1.67;1.20;;;0.90;99.90;;;;;;5097762;28;20195;-79
2022/12/03 09:48:54;;;;;;;0.75;0.75;;;0.90;99.90;;;;;;5116170;28;20195;-78
2022/12/03 09:51:20;;;;;;;1.75;1.15;;;0.90;99.90;;;;;;5097625;28;20225;-79
2022/12/03 09:53:46;;;;;;;0.68;0.68;;;0.90;99.90;;;;;;5097762;28;20749;-79
2022/12/03 09:56:22;;;;;;;0.60;0.60;;;0.90;99.90;;;;;;5097747;28;20207;-79
2022/12/03 09:58:48;;;;;;;0.60;0.60;;;0.90;99.90;;;;;;5096445;28;20202;-79
2022/12/03 10:01:15;;;;;;;0.50;0.50;;;1.00;99.90;;;;;;5097672;28;20196;-79
2022/12/03 10:03:49;;;;;;;0.68;0.68;;;1.00;99.90;;;;;;5097629;28;20199;-79
2022/12/03 10:06:21;;;;;;;2.38;1.33;;;0.90;99.90;;;;;;5097673;28;20199;-79
2022/12/03 10:08:53;;;;;;;0.60;0.60;;;0.90;99.90;;;;;;5115879;28;20647;-79
2022/12/03 10:11:21;;;;;;;0.70;0.70;;;0.90;99.90;;;;;;5097435;28;20200;-80
2022/12/03 10:13:48;;;;;;;0.60;0.60;;;0.90;99.90;;;;;;5097429;28;20624;-78
2022/12/03 10:16:17;;;;;;;0.60;0.60;;;0.90;99.90;;;;;;5115527;28;20214;-79
2022/12/03 10:18:50;;;;;;;0.70;0.70;;;0.90;99.90;;;;;;5097082;28;20196;-79
2022/12/03 10:21:36;;;;;;;0.60;0.60;;;0.90;99.90;;;;;;5115652;28;20193;-79
2022/12/03 10:24:47;;;;;;;0.47;0.47;;;1.00;99.90;;;;;;5093528;28;20245;-79
2022/12/03 10:27:31;;;;;;;0.70;0.70;;;1.00;99.90;;;;;;5087301;28;20287;-78
2022/12/03 10:29:58;;;;;;;0.60;0.60;;;1.00;99.90;;;;;;5107823;28;20187;-78
2022/12/03 10:32:26;;;;;;;0.60;0.60;;;1.00;99.90;;;;;;5116715;28;20685;-82
2022/12/03 10:35:08;;;;;;;0.55;0.55;;;1.00;99.90;;;;;;5115379;28;20297;-83
2022/12/03 10:37:33;;;;;;;0.50;0.50;;;1.10;99.90;;;;;;5097264;28;20192;-82
2022/12/03 10:40:07;;;;;;;0.85;0.85;;;1.00;99.90;;;;;;5088268;28;20269;-83
2022/12/03 10:42:35;;;;;;;0.60;0.60;;;1.00;99.90;;;;;;5094772;28;20668;-82
2022/12/03 10:45:13;;;;;;;0.70;0.70;;;1.10;99.90;;;;;;5076836;28;20188;-83
2022/12/03 10:47:39;;;;;;;0.70;0.70;;;1.00;99.90;;;;;;5076873;28;20750;-83
2022/12/03 10:50:14;;;;;;;0.65;0.65;;;1.10;99.90;;;;;;5076777;28;20287;-83
2022/12/03 10:52:40;;;;;;;0.80;0.80;;;1.10;99.90;;;;;;5094004;28;20486;-83
2022/12/03 10:55:08;;;;;;;0.65;0.65;;;1.10;99.90;;;;;;5075806;28;20319;-84
2022/12/03 10:57:34;;;;;;;0.80;0.80;;;1.00;99.90;;;;;;5056376;28;20586;-83
2022/12/03 11:00:05;;;;;;;0.38;0.38;;;1.10;99.90;;;;;;5056368;28;20197;-83
2022/12/03 11:02:30;;;;;;;0.57;0.57;;;1.00;99.90;;;;;;5074043;28;20212;-81
2022/12/03 11:04:56;;;;;;;0.50;0.50;;;1.10;99.90;;;;;;5074407;28;20193;-83
2022/12/03 11:07:23;;;;;;;0.73;0.73;;;1.10;99.90;;;;;;5056143;28;20201;-83
2022/12/03 11:09:53;;;;;;;0.60;0.60;;;1.10;99.90;;;;;;5074191;28;20185;-83
2022/12/03 11:12:24;;;;;;;0.57;0.57;;;1.00;99.90;;;;;;5056353;28;20725;-84
2022/12/03 11:14:50;;;;;;;0.50;0.50;;;1.10;99.90;;;;;;5074162;28;20561;-85
2022/12/03 11:17:42;;;;;;;0.60;0.60;;;1.10;99.90;;;;;;5055956;28;20189;-85
2022/12/03 11:20:32;;;;;;;0.60;0.60;;;1.10;99.90;;;;;;5056117;28;20246;-84
2022/12/03 11:22:58;;;;;;;0.60;0.60;;;1.10;99.90;;;;;;5011853;28;20235;-84
2022/12/03 11:25:23;;;;;;;0.50;0.50;;;1.00;99.90;;;;;;5075760;28;20262;-83
2022/12/03 11:28:14;;;;;;;0.80;0.80;;;1.00;99.90;;;;;;5093937;28;20196;-83
2022/12/03 11:30:57;;;;;;;0.60;0.60;;;1.00;99.90;;;;;;5093692;28;20208;-86
2022/12/03 11:33:26;;;;;;;0.55;0.55;;;1.00;99.90;;;;;;5094152;28;20219;-83
2022/12/03 11:36:04;;;;;;;0.60;0.60;;;1.10;99.90;;;;;;5093811;28;20262;-84
2022/12/03 11:38:39;;;;;;;0.63;0.63;;;1.00;99.90;;;;;;5075657;28;20557;-83
2022/12/03 11:41:17;;;;;;;0.60;0.60;;;1.00;99.90;;;;;;5111732;28;20275;-84
2022/12/03 11:43:52;;;;;;;0.80;0.80;;;1.00;99.90;;;;;;5095685;28;20623;-83
2022/12/03 11:46:24;;;;;;;0.60;0.60;;;1.00;99.90;;;;;;5095349;28;20202;-83
2022/12/03 11:48:52;;;;;;;0.60;0.60;;;1.00;99.90;;;;;;5093507;28;20214;-84
2022/12/03 11:51:21;;;;;;;0.60;0.60;;;1.00;99.90;;;;;;5095214;28;20681;-83
2022/12/03 11:53:49;;;;;;;0.50;0.50;;;1.00;99.90;;;;;;5113891;28;20199;-83
2022/12/03 11:56:18;;;;;;;0.73;0.73;;;1.00;99.90;;;;;;5113736;28;20199;-83
2022/12/03 11:58:45;;;;;;;0.70;0.70;;;0.90;99.90;;;;;;5095280;28;20187;-83
2022/12/03 12:01:14;;;;;;;0.60;0.60;;;1.00;99.90;;;;;;5113614;28;20192;-83
2022/12/03 12:03:44;;;;;;;0.85;0.85;;;0.90;99.90;;;;;;5095499;28;20550;-84
2022/12/03 12:06:12;;;;;;;0.52;0.52;;;0.90;99.90;;;;;;5095619;28;20199;-84
2022/12/03 12:08:56;;;;;;;0.60;0.60;;;0.90;99.90;;;;;;5113714;28;20603;-83
2022/12/03 12:11:30;;;;;;;0.60;0.60;;;0.90;99.90;;;;;;5113572;28;20188;-83
2022/12/03 12:14:07;;;;;;;0.52;0.52;;;0.90;99.90;;;;;;5113845;28;20258;-85
2022/12/03 12:16:39;;;;;;;0.60;0.60;;;0.90;99.90;;;;;;5113225;28;20202;-84
2022/12/03 12:19:28;;;;;;;0.60;0.60;;;0.90;99.90;;;;;;5113647;28;20187;-83
2022/12/03 12:21:55;;;;;;;0.50;0.50;;;0.90;99.90;;;;;;5112997;28;20192;-84
2022/12/03 12:24:39;;;;;;;0.70;0.70;;;0.90;99.90;;;;;;5113256;28;20250;-83
2022/12/03 12:27:15;;;;;;;0.45;0.45;;;0.90;99.90;;;;;;5075075;28;20192;-85
2022/12/03 12:29:44;;;;;;;0.70;0.70;;;0.90;99.90;;;;;;5075156;28;20195;-84
2022/12/03 12:32:13;;;;;;;0.60;0.60;;;0.90;99.90;;;;;;5075055;28;20249;-85
2022/12/03 12:34:48;;;;;;;0.55;0.55;;;0.80;99.90;;;;;;5074799;28;20200;-84
2022/12/03 12:37:30;;;;;;;0.50;0.50;;;0.80;99.90;;;;;;5093178;28;20188;-84
2022/12/03 12:39:56;;;;;;;0.70;0.70;;;0.80;99.90;;;;;;5074707;28;20224;-85
2022/12/03 12:42:30;;;;;;;0.63;0.63;;;0.80;99.90;;;;;;5092953;28;20245;-84
2022/12/03 12:45:12;;;;;;;0.60;0.60;;;0.80;99.90;;;;;;5093151;28;20244;-85
2022/12/03 12:47:42;;;;;;;0.50;0.50;;;0.80;99.90;;;;;;5112619;28;20248;-84
2022/12/03 12:50:09;;;;;;;0.50;0.50;;;0.80;99.90;;;;;;5095119;28;20246;-83
2022/12/03 12:52:39;;;;;;;0.60;0.60;;;0.70;99.90;;;;;;5094658;28;20566;-83
2022/12/03 12:55:08;;;;;;;0.50;0.50;;;0.70;99.90;;;;;;5094982;28;20646;-85
2022/12/03 12:57:34;;;;;;;0.60;0.60;;;0.70;99.90;;;;;;5112916;28;20195;-83
2022/12/03 13:00:00;;;;;;;0.63;0.63;;;0.70;99.90;;;;;;5113372;28;20646;-84
2022/12/03 13:02:46;;;;;;;0.57;0.57;;;0.70;99.90;;;;;;5094776;28;20210;-84
2022/12/03 13:05:13;;;;;;;0.70;0.70;;;0.70;99.90;;;;;;5113365;28;20210;-85
2022/12/03 13:07:40;;;;;;;0.50;0.50;;;0.70;99.90;;;;;;5112970;28;20200;-85
2022/12/03 13:10:34;;;;;;;0.70;0.70;;;0.70;99.90;;;;;;5094967;28;20199;-86
2022/12/03 13:13:30;;;;;;;0.57;0.57;;;0.70;99.90;;;;;;5092703;28;20211;-86
2022/12/03 13:16:16;;;;;;;0.60;0.60;;;0.70;99.90;;;;;;5094926;28;20211;-85
2022/12/03 13:18:56;;;;;;;0.60;0.60;;;0.60;99.90;;;;;;5094748;28;20202;-85
2022/12/03 13:21:24;;;;;;;0.60;0.60;;;0.70;99.90;;;;;;5094655;28;20731;-84
2022/12/03 13:23:56;;;;;;;0.55;0.55;;;0.70;99.90;;;;;;5103810;28;20640;-84
2022/12/03 13:26:32;;;;;;;0.60;0.60;;;0.60;99.90;;;;;;5092788;28;20227;-84
2022/12/03 13:29:01;;;;;;;0.60;0.60;;;0.60;99.90;;;;;;5092850;28;20555;-84
2022/12/03 13:31:32;;;;;;;0.70;0.70;;;0.60;99.90;;;;;;5074903;28;20215;-84
2022/12/03 13:33:59;;;;;;;0.68;0.68;;;0.70;99.90;;;;;;5076793;28;20204;-84
2022/12/03 13:36:40;;;;;;;0.80;0.80;;;0.60;99.90;;;;;;5096157;28;20296;-84